createdAt,value
2018-03-14T00:04:20.052Z,97.60
2018-03-14T00:11:45.477Z,97.60
2018-03-14T00:16:42.693Z,98.00
2018-03-14T00:19:10.318Z,98.10
2018-03-14T00:21:37.871Z,97.50
2018-03-14T00:24:05.486Z,97.30
2018-03-14T00:26:33.027Z,97.30
2018-03-14T00:29:00.580Z,97.00
2018-03-14T00:31:28.549Z,97.20
2018-03-14T00:33:56.155Z,97.00
2018-03-14T00:36:24.093Z,97.20
2018-03-14T00:38:51.682Z,96.70
2018-03-14T00:41:19.626Z,97.20
2018-03-14T00:43:47.560Z,97.30
2018-03-14T00:46:15.178Z,98.30
2018-03-14T00:48:42.723Z,97.50
2018-03-14T00:51:10.348Z,97.40
2018-03-14T00:53:37.908Z,98.40
2018-03-14T00:56:06.644Z,99.10
2018-03-14T00:58:34.993Z,99.50
2018-03-14T01:01:02.605Z,99.30
2018-03-14T01:03:30.997Z,99.50
2018-03-14T01:05:58.570Z,98.20
2018-03-14T01:08:27.248Z,98.40
2018-03-14T01:10:55.658Z,98.40
2018-03-14T01:13:23.614Z,98.10
2018-03-14T01:15:51.146Z,97.80
2018-03-14T01:18:19.518Z,98.20
2018-03-14T01:20:47.916Z,98.00
2018-03-14T01:23:16.246Z,97.80
2018-03-14T01:28:12.872Z,97.50
2018-03-14T01:30:42.015Z,97.70
2018-03-14T01:35:38.537Z,97.40
2018-03-14T01:38:06.505Z,97.30
2018-03-14T01:40:34.059Z,97.30
2018-03-14T01:43:01.991Z,97.50
2018-03-14T01:45:29.510Z,97.40
2018-03-14T01:47:57.070Z,97.50
2018-03-14T01:50:24.620Z,97.50
2018-03-14T01:52:52.168Z,96.60
2018-03-14T01:57:49.865Z,97.30
2018-03-14T02:00:18.238Z,97.00
2018-03-14T02:02:46.291Z,97.00
2018-03-14T02:05:14.368Z,97.20
2018-03-14T02:10:10.985Z,97.50
2018-03-14T02:12:39.284Z,97.10
2018-03-14T02:15:07.581Z,97.10
2018-03-14T02:17:35.568Z,97.50
2018-03-14T02:20:04.393Z,97.40
2018-03-14T02:22:32.754Z,97.60
2018-03-14T02:25:00.223Z,97.80
2018-03-14T02:27:28.684Z,97.80
2018-03-14T02:29:56.123Z,98.30
2018-03-14T02:32:23.589Z,97.90
2018-03-14T02:34:51.792Z,96.90
2018-03-14T02:37:19.324Z,97.90
2018-03-14T02:39:47.939Z,98.30
2018-03-14T02:42:15.478Z,98.70
2018-03-14T02:44:43.335Z,98.70
2018-03-14T02:47:11.568Z,99.00
2018-03-14T02:49:39.024Z,97.90
2018-03-14T02:52:06.463Z,98.20
2018-03-14T02:57:03.475Z,97.50
2018-03-14T02:59:31.337Z,98.40
2018-03-14T03:01:59.906Z,98.00
2018-03-14T03:04:27.362Z,98.50
2018-03-14T03:06:54.812Z,98.20
2018-03-14T03:09:22.290Z,97.00
2018-03-14T03:11:50.145Z,97.10
2018-03-14T03:14:17.605Z,97.30
2018-03-14T03:16:45.035Z,97.50
2018-03-14T03:19:13.239Z,97.40
2018-03-14T03:21:41.075Z,97.80
2018-03-14T03:24:10.028Z,97.90
2018-03-14T03:26:37.854Z,97.10
2018-03-14T03:29:05.299Z,97.80
2018-03-14T03:31:33.528Z,97.00
2018-03-14T03:34:01.738Z,98.20
2018-03-14T03:36:29.188Z,98.10
2018-03-14T03:38:58.154Z,98.70
2018-03-14T03:41:26.358Z,98.80
2018-03-14T03:43:53.804Z,97.90
2018-03-14T03:46:21.244Z,98.40
2018-03-14T03:48:48.703Z,98.70
2018-03-14T03:51:16.550Z,99.20
2018-03-14T03:53:44.793Z,99.70
2018-03-14T03:56:12.244Z,99.60
2018-03-14T03:58:39.702Z,99.90
2018-03-14T04:01:07.572Z,99.90
2018-03-14T04:03:35.415Z,99.90
2018-03-14T04:06:02.867Z,99.90
2018-03-14T04:08:30.334Z,99.90
2018-03-14T04:10:58.178Z,99.90
2018-03-14T04:13:25.646Z,99.90
2018-03-14T04:15:53.091Z,99.90
2018-03-14T04:18:20.549Z,99.90
2018-03-14T04:20:48.758Z,99.90
2018-03-14T04:23:16.197Z,99.90
2018-03-14T04:25:44.436Z,99.90
2018-03-14T04:28:11.862Z,99.90
2018-03-14T04:30:39.302Z,99.90
2018-03-14T04:33:06.752Z,99.90
2018-03-14T04:35:34.219Z,99.90
2018-03-14T04:38:01.675Z,99.90
2018-03-14T04:40:29.124Z,99.90
2018-03-14T04:42:56.563Z,99.90
2018-03-14T04:45:24.804Z,99.90
2018-03-14T04:47:52.256Z,99.90
2018-03-14T04:50:21.233Z,99.90
2018-03-14T04:52:49.463Z,99.90
2018-03-14T04:55:16.931Z,99.90
2018-03-14T04:57:44.376Z,99.90
2018-03-14T05:00:11.841Z,99.90
2018-03-14T05:02:39.303Z,99.90
2018-03-14T05:05:06.779Z,99.90
2018-03-14T05:07:34.231Z,99.90
2018-03-14T05:10:01.722Z,99.90
2018-03-14T05:12:29.925Z,99.90
2018-03-14T05:14:57.370Z,99.90
2018-03-14T05:17:25.829Z,99.80
2018-03-14T05:19:54.803Z,99.70
2018-03-14T05:22:22.644Z,98.80
2018-03-14T05:24:50.099Z,98.10
2018-03-14T05:27:18.389Z,97.90
2018-03-14T05:29:46.591Z,97.70
2018-03-14T05:34:42.863Z,97.40
2018-03-14T05:37:10.332Z,97.30
2018-03-14T05:39:37.788Z,97.40
2018-03-14T05:42:05.230Z,97.40
2018-03-14T05:44:33.816Z,97.70
2018-03-14T05:47:02.040Z,98.10
2018-03-14T05:49:30.725Z,98.10
2018-03-14T05:51:58.602Z,97.90
2018-03-14T05:54:26.055Z,97.90
2018-03-14T05:59:23.455Z,97.70
2018-03-14T06:01:51.670Z,98.10
2018-03-14T06:04:19.900Z,97.60
2018-03-14T06:06:47.345Z,97.50
2018-03-14T06:09:14.807Z,97.50
2018-03-14T06:11:42.262Z,97.40
2018-03-14T06:14:09.710Z,97.50
2018-03-14T06:16:37.950Z,97.60
2018-03-14T06:19:05.790Z,97.70
2018-03-14T06:21:33.250Z,97.70
2018-03-14T06:24:00.685Z,97.80
2018-03-14T06:26:29.263Z,98.30
2018-03-14T06:28:56.702Z,98.50
2018-03-14T06:31:24.162Z,99.00
2018-03-14T06:33:52.369Z,99.10
2018-03-14T06:36:21.325Z,99.40
2018-03-14T06:38:48.767Z,98.40
2018-03-14T06:41:16.966Z,98.60
2018-03-14T06:43:45.166Z,98.10
2018-03-14T06:46:13.014Z,97.80
2018-03-14T06:48:41.227Z,97.90
2018-03-14T06:51:08.669Z,97.40
2018-03-14T06:53:36.894Z,97.80
2018-03-14T06:56:04.402Z,97.50
2018-03-14T06:58:43.582Z,96.50
2018-03-14T07:04:52.600Z,93.00
2018-03-14T07:07:20.018Z,92.30
2018-03-14T07:09:48.610Z,91.60
2018-03-14T07:12:17.191Z,91.70
2018-03-14T07:14:45.439Z,92.40
2018-03-14T07:17:12.987Z,92.60
2018-03-14T07:19:40.444Z,93.00
2018-03-14T07:22:07.900Z,93.60
2018-03-14T07:24:36.134Z,94.40
2018-03-14T07:27:03.590Z,93.70
2018-03-14T07:29:31.799Z,93.10
2018-03-14T07:31:59.285Z,92.60
2018-03-14T07:34:26.758Z,92.10
2018-03-14T07:36:54.194Z,91.90
2018-03-14T07:39:22.059Z,92.50
2018-03-14T07:41:49.518Z,93.40
2018-03-14T07:44:16.970Z,93.80
2018-03-14T07:46:44.442Z,94.50
2018-03-14T07:49:11.886Z,93.80
2018-03-14T07:51:40.122Z,93.40
2018-03-14T07:54:07.560Z,92.50
2018-03-14T07:56:35.002Z,91.60
2018-03-14T07:59:03.205Z,91.30
2018-03-14T08:01:31.414Z,90.10
2018-03-14T08:03:58.861Z,86.00
2018-03-14T08:06:26.306Z,89.20
2018-03-14T08:08:54.539Z,90.60
2018-03-14T08:11:21.976Z,89.60
2018-03-14T08:13:50.373Z,87.80
2018-03-14T08:16:17.641Z,86.80
2018-03-14T08:18:45.305Z,88.20
2018-03-14T08:21:13.522Z,87.10
2018-03-14T08:23:40.978Z,84.70
2018-03-14T08:26:08.427Z,87.30
2018-03-14T08:28:37.406Z,84.60
2018-03-14T08:31:04.898Z,85.40
2018-03-14T08:33:32.364Z,87.50
2018-03-14T08:36:00.579Z,88.40
2018-03-14T08:38:29.162Z,90.40
2018-03-14T08:40:56.723Z,90.30
2018-03-14T08:43:24.558Z,90.20
2018-03-14T08:45:52.408Z,90.60
2018-03-14T08:48:19.859Z,89.00
2018-03-14T08:50:47.689Z,87.60
2018-03-14T08:53:15.385Z,85.90
2018-03-14T08:55:42.836Z,84.30
2018-03-14T08:58:11.031Z,81.90
2018-03-14T09:00:39.244Z,79.90
2018-03-14T09:03:06.782Z,78.00
2018-03-14T09:05:35.053Z,80.00
2018-03-14T09:08:02.947Z,78.50
2018-03-14T09:10:30.386Z,77.60
2018-03-14T09:12:57.826Z,79.40
2018-03-14T09:15:25.485Z,79.90
2018-03-14T09:17:53.031Z,83.00
2018-03-14T09:20:20.874Z,82.10
2018-03-14T09:22:48.314Z,78.60
2018-03-14T09:25:15.937Z,81.20
2018-03-14T09:27:44.219Z,81.50
2018-03-14T09:30:12.431Z,80.70
2018-03-14T09:32:39.889Z,83.40
2018-03-14T09:35:07.746Z,78.60
2018-03-14T09:37:36.259Z,79.20
2018-03-14T09:40:04.471Z,78.20
2018-03-14T09:42:31.950Z,76.30
2018-03-14T09:44:59.451Z,77.20
2018-03-14T09:47:26.959Z,76.10
2018-03-14T09:49:55.236Z,77.70
2018-03-14T09:52:22.711Z,76.10
2018-03-14T09:54:50.944Z,73.80
2018-03-14T09:57:18.652Z,76.00
2018-03-14T09:59:46.247Z,73.40
2018-03-14T10:02:13.682Z,74.00
2018-03-14T10:04:42.036Z,75.80
2018-03-14T10:07:09.511Z,72.70
2018-03-14T10:09:37.207Z,77.70
2018-03-14T10:12:05.651Z,77.80
2018-03-14T10:14:33.100Z,77.80
2018-03-14T10:17:01.345Z,78.30
2018-03-14T10:19:29.587Z,74.40
2018-03-14T10:21:57.201Z,74.60
2018-03-14T10:24:24.686Z,71.70
2018-03-14T10:26:52.992Z,75.30
2018-03-14T10:29:21.249Z,73.20
2018-03-14T10:31:48.713Z,73.00
2018-03-14T10:34:16.654Z,70.70
2018-03-14T10:36:44.196Z,66.80
2018-03-14T10:39:12.121Z,61.50
2018-03-14T10:41:40.392Z,62.90
2018-03-14T10:44:07.838Z,62.60
2018-03-14T10:46:36.247Z,60.40
2018-03-14T10:49:03.698Z,59.40
2018-03-14T10:51:31.142Z,61.10
2018-03-14T10:53:58.587Z,62.50
2018-03-14T10:56:26.375Z,61.40
2018-03-14T10:58:54.663Z,62.10
2018-03-14T11:01:22.507Z,66.50
2018-03-14T11:03:49.971Z,61.10
2018-03-14T11:06:17.694Z,64.10
2018-03-14T11:08:46.174Z,62.80
2018-03-14T11:11:15.059Z,61.80
2018-03-14T11:13:42.516Z,64.30
2018-03-14T11:16:10.370Z,64.10
2018-03-14T11:18:38.198Z,60.50
2018-03-14T11:21:05.835Z,59.20
2018-03-14T11:23:33.272Z,60.00
2018-03-14T11:26:00.732Z,63.10
2018-03-14T11:28:28.937Z,64.70
2018-03-14T11:30:56.612Z,63.20
2018-03-14T11:33:25.039Z,63.40
2018-03-14T11:35:52.515Z,61.50
2018-03-14T11:38:19.952Z,60.80
2018-03-14T11:40:47.551Z,59.10
2018-03-14T11:43:15.298Z,56.00
2018-03-14T11:45:42.838Z,59.70
2018-03-14T11:48:10.696Z,53.60
2018-03-14T11:50:38.592Z,55.60
2018-03-14T11:53:06.513Z,53.80
2018-03-14T11:55:34.095Z,54.80
2018-03-14T11:58:02.302Z,55.50
2018-03-14T12:00:29.759Z,53.60
2018-03-14T12:02:57.282Z,52.90
2018-03-14T12:05:25.557Z,53.70
2018-03-14T12:07:53.799Z,53.50
2018-03-14T12:10:22.767Z,51.70
2018-03-14T12:12:50.215Z,50.70
2018-03-14T12:15:18.459Z,51.70
2018-03-14T12:17:46.025Z,54.70
2018-03-14T12:20:13.443Z,57.20
2018-03-14T12:22:41.274Z,55.80
2018-03-14T12:25:09.560Z,54.70
2018-03-14T12:27:37.484Z,53.30
2018-03-14T12:30:04.928Z,54.80
2018-03-14T12:32:32.767Z,50.70
2018-03-14T12:35:00.308Z,51.50
2018-03-14T12:37:27.788Z,50.90
2018-03-14T12:39:55.240Z,52.70
2018-03-14T12:42:22.702Z,50.40
2018-03-14T12:44:50.543Z,47.80
2018-03-14T12:47:17.983Z,50.50
2018-03-14T12:49:45.418Z,47.30
2018-03-14T12:52:12.912Z,60.00
2018-03-14T12:54:40.367Z,54.10
2018-03-14T12:57:11.821Z,56.00
2018-03-14T13:02:15.065Z,50.90
2018-03-14T13:04:44.283Z,53.40
2018-03-14T13:07:12.123Z,52.00
2018-03-14T13:09:39.951Z,50.90
2018-03-14T13:12:07.416Z,52.70
2018-03-14T13:14:35.284Z,52.10
2018-03-14T13:17:02.729Z,52.40
2018-03-14T13:19:30.598Z,50.10
2018-03-14T13:21:58.448Z,48.20
2018-03-14T13:24:26.764Z,53.00
2018-03-14T13:26:54.698Z,50.60
2018-03-14T13:29:25.525Z,54.60
2018-03-14T13:31:53.103Z,54.40
2018-03-14T13:34:21.709Z,51.00
2018-03-14T13:36:49.927Z,47.60
2018-03-14T13:39:17.423Z,48.10
2018-03-14T13:41:45.645Z,45.00
2018-03-14T13:44:13.088Z,48.50
2018-03-14T13:46:40.872Z,46.70
2018-03-14T13:49:08.343Z,46.60
2018-03-14T13:51:35.839Z,52.20
2018-03-14T13:54:04.115Z,49.90
2018-03-14T13:56:31.579Z,44.40
2018-03-14T13:59:07.535Z,46.70
2018-03-14T14:01:35.592Z,47.60
2018-03-14T14:04:03.048Z,51.20
2018-03-14T14:06:30.903Z,48.30
2018-03-14T14:08:59.135Z,52.10
2018-03-14T14:11:28.832Z,50.30
2018-03-14T14:13:56.816Z,52.60
2018-03-14T14:16:25.048Z,51.70
2018-03-14T14:18:52.495Z,57.30
2018-03-14T14:21:20.737Z,58.00
2018-03-14T14:23:48.620Z,62.00
2018-03-14T14:26:18.371Z,58.60
2018-03-14T14:28:45.834Z,58.40
2018-03-14T14:31:13.333Z,59.90
2018-03-14T14:33:40.808Z,54.70
2018-03-14T14:36:10.537Z,54.00
2018-03-14T14:38:37.988Z,50.10
2018-03-14T14:41:06.186Z,49.30
2018-03-14T14:46:15.452Z,51.70
2018-03-14T14:48:42.904Z,52.50
2018-03-14T14:51:10.371Z,52.50
2018-03-14T14:53:37.830Z,54.90
2018-03-14T14:56:05.679Z,56.20
2018-03-14T14:58:35.632Z,57.30
2018-03-14T15:01:12.611Z,58.90
2018-03-14T15:03:40.455Z,60.30
2018-03-14T15:06:08.654Z,61.40
2018-03-14T15:08:36.917Z,63.00
2018-03-14T15:11:04.389Z,60.10
2018-03-14T15:13:32.604Z,60.70
2018-03-14T15:16:03.890Z,58.70
2018-03-14T15:18:31.427Z,57.60
2018-03-14T15:20:59.641Z,58.60
2018-03-14T15:23:27.479Z,57.60
2018-03-14T15:25:54.945Z,58.10
2018-03-14T15:28:22.403Z,59.30
2018-03-14T15:30:50.755Z,59.20
2018-03-14T15:33:21.224Z,59.00
2018-03-14T15:35:48.755Z,59.50
2018-03-14T15:38:16.348Z,60.30
2018-03-14T15:40:43.781Z,59.80
2018-03-14T15:43:11.251Z,61.30
2018-03-14T15:45:38.695Z,60.30
2018-03-14T15:48:06.651Z,59.70
2018-03-14T15:50:34.512Z,59.80
2018-03-14T15:53:03.095Z,59.50
2018-03-14T15:55:30.668Z,59.70
2018-03-14T15:57:59.164Z,60.60
2018-03-14T16:00:28.156Z,60.70
2018-03-14T16:03:11.197Z,60.60
2018-03-14T16:05:40.922Z,59.70
2018-03-14T16:08:18.984Z,60.60
2018-03-14T16:10:46.823Z,61.60
2018-03-14T16:13:19.896Z,61.20
2018-03-14T16:15:47.364Z,62.00
2018-03-14T16:18:15.629Z,62.40
2018-03-14T16:20:43.131Z,61.90
2018-03-14T16:23:10.584Z,63.30
2018-03-14T16:25:38.418Z,61.80
2018-03-14T16:28:05.862Z,62.90
2018-03-14T16:30:33.289Z,62.00
2018-03-14T16:33:00.747Z,62.30
2018-03-14T16:35:28.196Z,62.40
2018-03-14T16:37:55.641Z,62.10
2018-03-14T16:40:23.466Z,62.90
2018-03-14T16:42:51.321Z,63.80
2018-03-14T16:45:19.152Z,62.30
2018-03-14T16:47:47.358Z,63.00
2018-03-14T16:50:16.098Z,63.40
2018-03-14T16:52:43.489Z,63.20
2018-03-14T16:55:11.034Z,62.30
2018-03-14T16:57:38.509Z,62.20
2018-03-14T17:02:34.775Z,62.70
2018-03-14T17:05:02.224Z,62.60
2018-03-14T17:07:30.461Z,64.60
2018-03-14T17:09:58.295Z,63.70
2018-03-14T17:12:25.724Z,64.10
2018-03-14T17:14:53.564Z,65.10
2018-03-14T17:17:21.413Z,65.40
2018-03-14T17:19:54.184Z,65.70
2018-03-14T17:22:23.138Z,66.70
2018-03-14T17:24:50.995Z,66.30
2018-03-14T17:27:18.888Z,67.90
2018-03-14T17:29:46.689Z,70.50
2018-03-14T17:32:15.296Z,72.50
2018-03-14T17:34:42.720Z,74.10
2018-03-14T17:37:10.175Z,77.30
2018-03-14T17:39:37.639Z,77.70
2018-03-14T17:44:33.863Z,79.20
2018-03-14T17:47:02.110Z,80.10
2018-03-14T17:49:29.581Z,81.80
2018-03-14T17:51:57.045Z,82.60
2018-03-14T17:54:25.620Z,81.80
2018-03-14T17:59:22.271Z,82.30
2018-03-14T18:01:49.734Z,83.00
2018-03-14T18:06:45.988Z,83.60
2018-03-14T18:09:13.840Z,84.10
2018-03-14T18:11:42.116Z,84.10
2018-03-14T18:14:10.323Z,84.60
2018-03-14T18:16:37.776Z,87.50
2018-03-14T18:21:39.045Z,86.70
2018-03-14T18:24:06.489Z,86.10
2018-03-14T18:26:33.938Z,87.80
2018-03-14T18:29:04.036Z,87.80
2018-03-14T18:31:31.479Z,87.60
2018-03-14T18:33:58.918Z,87.30
2018-03-14T18:36:27.140Z,88.30
2018-03-14T18:38:58.107Z,86.80
2018-03-14T18:41:25.579Z,87.00
2018-03-14T18:46:22.944Z,88.90
2018-03-14T18:48:50.786Z,88.50
2018-03-14T18:53:47.086Z,89.60
2018-03-14T18:56:14.947Z,89.70
2018-03-14T18:58:42.413Z,89.60
2018-03-14T19:01:24.187Z,90.10
2018-03-14T19:03:52.051Z,90.50
2018-03-14T19:06:19.655Z,90.70
2018-03-14T19:08:48.619Z,90.70
2018-03-14T19:11:16.096Z,90.60
2018-03-14T19:13:44.656Z,90.50
2018-03-14T19:16:13.680Z,90.80
2018-03-14T19:18:41.131Z,90.50
2018-03-14T19:21:08.986Z,90.50
2018-03-14T19:23:37.205Z,89.20
2018-03-14T19:26:05.425Z,88.90
2018-03-14T19:28:33.099Z,88.30
2018-03-14T19:31:00.625Z,89.60
2018-03-14T19:33:28.877Z,90.00
2018-03-14T19:35:56.724Z,90.80
2018-03-14T19:38:24.952Z,90.90
2018-03-14T19:40:52.502Z,91.10
2018-03-14T19:43:21.456Z,90.90
2018-03-14T19:45:48.908Z,91.20
2018-03-14T19:48:16.369Z,91.40
2018-03-14T19:50:44.237Z,91.30
2018-03-14T19:55:40.528Z,91.50
2018-03-14T19:58:08.850Z,91.00
2018-03-14T20:00:49.834Z,91.10
2018-03-14T20:03:18.046Z,90.80
2018-03-14T20:05:46.732Z,90.50
2018-03-14T20:08:14.183Z,89.40
2018-03-14T20:10:49.007Z,89.40
2018-03-14T20:15:46.233Z,88.50
2018-03-14T20:18:13.702Z,86.80
2018-03-14T20:20:41.964Z,87.40
2018-03-14T20:25:39.152Z,90.00
2018-03-14T20:28:06.643Z,89.90
2018-03-14T20:30:37.013Z,90.10
2018-03-14T20:33:05.473Z,88.60
2018-03-14T20:38:02.304Z,89.20
2018-03-14T20:43:23.551Z,88.10
2018-03-14T20:48:24.300Z,88.40
2018-03-14T20:50:51.768Z,89.60
2018-03-14T20:55:48.126Z,90.20
2018-03-14T20:58:15.563Z,90.60
2018-03-14T21:00:43.416Z,90.50
2018-03-14T21:03:10.883Z,90.50
2018-03-14T21:05:44.196Z,90.90
2018-03-14T21:08:11.687Z,91.50
2018-03-14T21:10:39.954Z,91.10
2018-03-14T21:15:36.979Z,91.80
2018-03-14T21:18:05.636Z,92.10
2018-03-14T21:20:33.098Z,92.20
2018-03-14T21:23:01.730Z,91.80
2018-03-14T21:25:30.771Z,92.00
2018-03-14T21:30:27.067Z,92.10
2018-03-14T21:32:54.518Z,92.40
2018-03-14T21:35:22.376Z,92.50
2018-03-14T21:37:49.855Z,92.80
2018-03-14T21:40:18.472Z,93.00
2018-03-14T21:42:46.316Z,93.20
2018-03-14T21:45:14.163Z,93.40
2018-03-14T21:47:41.605Z,93.60
2018-03-14T21:50:09.798Z,93.10
2018-03-14T21:52:37.273Z,93.20
2018-03-14T22:00:02.303Z,92.70
2018-03-14T22:02:31.271Z,92.90
2018-03-14T22:04:58.779Z,92.90
2018-03-14T22:07:26.574Z,91.90
2018-03-14T22:09:54.012Z,91.40
2018-03-14T22:14:50.294Z,91.40
2018-03-14T22:17:18.157Z,91.40
2018-03-14T22:19:46.367Z,91.40
2018-03-14T22:22:14.261Z,91.30
2018-03-14T22:24:42.085Z,91.30
2018-03-14T22:27:10.308Z,91.50
2018-03-14T22:29:37.761Z,91.00
2018-03-14T22:32:05.207Z,91.30
2018-03-14T22:34:33.427Z,92.00
2018-03-14T22:37:02.038Z,91.40
2018-03-14T22:39:29.490Z,91.20
2018-03-14T22:41:56.931Z,91.20
2018-03-14T22:44:25.144Z,91.50
2018-03-14T22:46:53.384Z,90.90
2018-03-14T22:49:20.812Z,91.00
2018-03-14T22:51:48.235Z,90.90
2018-03-14T22:54:16.454Z,90.90
2018-03-14T22:56:44.654Z,90.50
2018-03-14T22:59:12.113Z,90.40
2018-03-14T23:01:39.599Z,90.50
2018-03-14T23:04:07.824Z,90.40
2018-03-14T23:09:11.287Z,90.50
2018-03-14T23:11:38.764Z,90.30
2018-03-14T23:14:06.231Z,90.20
2018-03-14T23:16:33.680Z,90.50
2018-03-14T23:19:01.912Z,90.70
2018-03-14T23:21:30.127Z,90.30
2018-03-14T23:23:57.714Z,90.20
2018-03-14T23:26:25.169Z,90.20
2018-03-14T23:28:52.627Z,90.30
2018-03-14T23:31:20.461Z,90.30
2018-03-14T23:33:47.916Z,90.30
2018-03-14T23:36:15.772Z,90.20
2018-03-14T23:38:43.992Z,90.40
2018-03-14T23:41:11.441Z,90.00
2018-03-14T23:43:38.886Z,90.00
2018-03-14T23:46:07.094Z,89.80
2018-03-14T23:48:34.946Z,90.00
2018-03-14T23:53:31.184Z,89.90
2018-03-14T23:55:58.634Z,90.00
2018-03-14T23:58:26.071Z,89.60
